sensor_id;sensor_type;location;lat;lon;timestamp;temperature;humidity
41882;DHT22;27562;47.524;12.404;2023-06-10T00:01:01;13.60;99.90
41882;DHT22;27562;47.524;12.404;2023-06-10T00:03:26;13.50;99.90
41882;DHT22;27562;47.524;12.404;2023-06-10T00:05:52;13.60;99.90
41882;DHT22;27562;47.524;12.404;2023-06-10T00:08:17;13.50;99.90
41882;DHT22;27562;47.524;12.404;2023-06-10T00:10:45;13.50;99.90
41882;DHT22;27562;47.524;12.404;2023-06-10T00:13:10;13.40;99.90
41882;DHT22;27562;47.524;12.404;2023-06-10T00:15:39;13.30;99.90
41882;DHT22;27562;47.524;12.404;2023-06-10T00:18:05;13.10;99.90
41882;DHT22;27562;47.524;12.404;2023-06-10T00:20:30;13.10;99.90
41882;DHT22;27562;47.524;12.404;2023-06-10T00:22:57;13.10;99.90
41882;DHT22;27562;47.524;12.404;2023-06-10T00:25:24;13.10;99.90
41882;DHT22;27562;47.524;12.404;2023-06-10T00:27:51;13.10;99.90
41882;DHT22;27562;47.524;12.404;2023-06-10T00:30:16;13.10;99.90
41882;DHT22;27562;47.524;12.404;2023-06-10T00:32:42;13.10;99.90
41882;DHT22;27562;47.524;12.404;2023-06-10T00:35:07;13.10;99.90
41882;DHT22;27562;47.524;12.404;2023-06-10T00:37:36;13.10;99.90
41882;DHT22;27562;47.524;12.404;2023-06-10T00:40:05;13.10;99.90
41882;DHT22;27562;47.524;12.404;2023-06-10T00:42:30;13.00;99.90
41882;DHT22;27562;47.524;12.404;2023-06-10T00:44:56;12.90;99.90
41882;DHT22;27562;47.524;12.404;2023-06-10T00:47:22;12.90;99.90
41882;DHT22;27562;47.524;12.404;2023-06-10T00:49:48;12.90;99.90
41882;DHT22;27562;47.524;12.404;2023-06-10T00:52:14;12.90;99.90
41882;DHT22;27562;47.524;12.404;2023-06-10T00:54:40;12.90;99.90
41882;DHT22;27562;47.524;12.404;2023-06-10T00:57:06;12.90;99.90
41882;DHT22;27562;47.524;12.404;2023-06-10T00:59:31;12.90;99.90
41882;DHT22;27562;47.524;12.404;2023-06-10T01:01:57;12.80;99.90
41882;DHT22;27562;47.524;12.404;2023-06-10T01:04:24;12.70;99.90
41882;DHT22;27562;47.524;12.404;2023-06-10T01:09:22;12.40;99.90
41882;DHT22;27562;47.524;12.404;2023-06-10T01:11:59;12.40;99.90
41882;DHT22;27562;47.524;12.404;2023-06-10T01:14:27;12.40;99.90
41882;DHT22;27562;47.524;12.404;2023-06-10T01:16:52;12.40;99.90
41882;DHT22;27562;47.524;12.404;2023-06-10T01:19:18;12.40;99.90
41882;DHT22;27562;47.524;12.404;2023-06-10T01:21:44;12.40;99.90
41882;DHT22;27562;47.524;12.404;2023-06-10T01:24:14;12.40;99.90
41882;DHT22;27562;47.524;12.404;2023-06-10T01:26:39;12.40;99.90
41882;DHT22;27562;47.524;12.404;2023-06-10T01:29:07;12.40;99.90
41882;DHT22;27562;47.524;12.404;2023-06-10T01:31:38;12.40;99.90
41882;DHT22;27562;47.524;12.404;2023-06-10T01:34:10;12.30;99.90
41882;DHT22;27562;47.524;12.404;2023-06-10T01:36:37;12.30;99.90
41882;DHT22;27562;47.524;12.404;2023-06-10T01:39:03;12.20;99.90
41882;DHT22;27562;47.524;12.404;2023-06-10T01:41:29;12.20;99.90
41882;DHT22;27562;47.524;12.404;2023-06-10T01:43:55;12.20;99.90
41882;DHT22;27562;47.524;12.404;2023-06-10T01:46:21;12.20;99.90
41882;DHT22;27562;47.524;12.404;2023-06-10T01:48:47;12.00;99.90
41882;DHT22;27562;47.524;12.404;2023-06-10T01:51:12;11.90;99.90
41882;DHT22;27562;47.524;12.404;2023-06-10T01:53:38;11.80;99.90
41882;DHT22;27562;47.524;12.404;2023-06-10T01:56:03;11.70;99.90
41882;DHT22;27562;47.524;12.404;2023-06-10T01:58:29;11.70;99.90
41882;DHT22;27562;47.524;12.404;2023-06-10T02:00:55;11.60;99.90
41882;DHT22;27562;47.524;12.404;2023-06-10T02:03:20;11.60;99.90
41882;DHT22;27562;47.524;12.404;2023-06-10T02:05:46;11.60;99.90
41882;DHT22;27562;47.524;12.404;2023-06-10T02:08:11;11.60;99.90
41882;DHT22;27562;47.524;12.404;2023-06-10T02:10:37;11.60;99.90
41882;DHT22;27562;47.524;12.404;2023-06-10T02:13:02;11.60;99.90
41882;DHT22;27562;47.524;12.404;2023-06-10T02:15:28;11.60;99.90
41882;DHT22;27562;47.524;12.404;2023-06-10T02:17:53;11.60;99.90
41882;DHT22;27562;47.524;12.404;2023-06-10T02:20:20;11.60;99.90
41882;DHT22;27562;47.524;12.404;2023-06-10T02:22:46;11.50;99.90
41882;DHT22;27562;47.524;12.404;2023-06-10T02:25:11;11.50;99.90
41882;DHT22;27562;47.524;12.404;2023-06-10T02:27:37;11.40;99.90
41882;DHT22;27562;47.524;12.404;2023-06-10T02:30:02;11.40;99.90
41882;DHT22;27562;47.524;12.404;2023-06-10T02:32:28;11.30;99.90
41882;DHT22;27562;47.524;12.404;2023-06-10T02:34:53;11.30;99.90
41882;DHT22;27562;47.524;12.404;2023-06-10T02:37:19;11.30;99.90
41882;DHT22;27562;47.524;12.404;2023-06-10T02:39:45;11.40;99.90
41882;DHT22;27562;47.524;12.404;2023-06-10T02:42:11;11.40;99.90
41882;DHT22;27562;47.524;12.404;2023-06-10T02:44:37;11.40;99.90
41882;DHT22;27562;47.524;12.404;2023-06-10T02:47:02;11.40;99.90
41882;DHT22;27562;47.524;12.404;2023-06-10T02:49:28;11.40;99.90
41882;DHT22;27562;47.524;12.404;2023-06-10T02:51:54;11.40;99.90
41882;DHT22;27562;47.524;12.404;2023-06-10T02:54:20;11.40;99.90
41882;DHT22;27562;47.524;12.404;2023-06-10T02:56:45;11.40;99.90
41882;DHT22;27562;47.524;12.404;2023-06-10T02:59:13;11.40;99.90
41882;DHT22;27562;47.524;12.404;2023-06-10T03:01:39;11.40;99.90
41882;DHT22;27562;47.524;12.404;2023-06-10T03:04:04;11.40;99.90
41882;DHT22;27562;47.524;12.404;2023-06-10T03:06:30;11.40;99.90
41882;DHT22;27562;47.524;12.404;2023-06-10T03:08:58;11.40;99.90
41882;DHT22;27562;47.524;12.404;2023-06-10T03:11:23;11.30;99.90
41882;DHT22;27562;47.524;12.404;2023-06-10T03:13:51;11.10;99.90
41882;DHT22;27562;47.524;12.404;2023-06-10T03:16:16;11.10;99.90
41882;DHT22;27562;47.524;12.404;2023-06-10T03:18:42;11.00;99.90
41882;DHT22;27562;47.524;12.404;2023-06-10T03:21:08;11.00;99.90
41882;DHT22;27562;47.524;12.404;2023-06-10T03:23:34;11.00;99.90
41882;DHT22;27562;47.524;12.404;2023-06-10T03:26:00;11.00;99.90
41882;DHT22;27562;47.524;12.404;2023-06-10T03:28:25;11.00;99.90
41882;DHT22;27562;47.524;12.404;2023-06-10T03:30:51;11.10;99.90
41882;DHT22;27562;47.524;12.404;2023-06-10T03:33:17;11.00;99.90
41882;DHT22;27562;47.524;12.404;2023-06-10T03:35:42;11.00;99.90
41882;DHT22;27562;47.524;12.404;2023-06-10T03:38:08;11.00;99.90
41882;DHT22;27562;47.524;12.404;2023-06-10T03:40:33;11.00;99.90
41882;DHT22;27562;47.524;12.404;2023-06-10T03:43:00;10.90;99.90
41882;DHT22;27562;47.524;12.404;2023-06-10T03:45:26;10.90;99.90
41882;DHT22;27562;47.524;12.404;2023-06-10T03:47:53;10.90;99.90
41882;DHT22;27562;47.524;12.404;2023-06-10T03:50:19;10.90;99.90
41882;DHT22;27562;47.524;12.404;2023-06-10T03:52:44;10.80;99.90
41882;DHT22;27562;47.524;12.404;2023-06-10T03:55:11;10.80;99.90
41882;DHT22;27562;47.524;12.404;2023-06-10T03:57:39;10.70;99.90
41882;DHT22;27562;47.524;12.404;2023-06-10T04:00:05;10.70;99.90
41882;DHT22;27562;47.524;12.404;2023-06-10T04:02:37;10.70;99.90
41882;DHT22;27562;47.524;12.404;2023-06-10T04:05:07;10.70;99.90
41882;DHT22;27562;47.524;12.404;2023-06-10T04:07:32;10.70;99.90
41882;DHT22;27562;47.524;12.404;2023-06-10T04:09:59;10.70;99.90
41882;DHT22;27562;47.524;12.404;2023-06-10T04:12:25;10.70;99.90
41882;DHT22;27562;47.524;12.404;2023-06-10T04:14:50;10.70;99.90
41882;DHT22;27562;47.524;12.404;2023-06-10T04:17:17;10.70;99.90
41882;DHT22;27562;47.524;12.404;2023-06-10T04:19:42;10.70;99.90
41882;DHT22;27562;47.524;12.404;2023-06-10T04:22:08;10.60;99.90
41882;DHT22;27562;47.524;12.404;2023-06-10T04:24:34;10.60;99.90
41882;DHT22;27562;47.524;12.404;2023-06-10T04:26:59;10.60;99.90
41882;DHT22;27562;47.524;12.404;2023-06-10T04:29:25;10.70;99.90
41882;DHT22;27562;47.524;12.404;2023-06-10T04:31:51;10.70;99.90
41882;DHT22;27562;47.524;12.404;2023-06-10T04:34:16;10.70;99.90
41882;DHT22;27562;47.524;12.404;2023-06-10T04:36:42;10.70;99.90
41882;DHT22;27562;47.524;12.404;2023-06-10T04:39:08;10.70;99.90
41882;DHT22;27562;47.524;12.404;2023-06-10T04:41:33;10.70;99.90
41882;DHT22;27562;47.524;12.404;2023-06-10T04:43:59;10.70;99.90
41882;DHT22;27562;47.524;12.404;2023-06-10T04:46:24;10.80;99.90
41882;DHT22;27562;47.524;12.404;2023-06-10T04:48:50;10.90;99.90
41882;DHT22;27562;47.524;12.404;2023-06-10T04:51:15;10.90;99.90
41882;DHT22;27562;47.524;12.404;2023-06-10T04:53:42;11.00;99.90
41882;DHT22;27562;47.524;12.404;2023-06-10T04:56:07;11.00;99.90
41882;DHT22;27562;47.524;12.404;2023-06-10T04:58:33;11.10;99.90
41882;DHT22;27562;47.524;12.404;2023-06-10T05:00:58;11.10;99.90
41882;DHT22;27562;47.524;12.404;2023-06-10T05:03:25;11.20;99.90
41882;DHT22;27562;47.524;12.404;2023-06-10T05:05:50;11.30;99.90
41882;DHT22;27562;47.524;12.404;2023-06-10T05:08:16;11.30;99.90
41882;DHT22;27562;47.524;12.404;2023-06-10T05:10:41;11.40;99.90
41882;DHT22;27562;47.524;12.404;2023-06-10T05:13:07;11.40;99.90
41882;DHT22;27562;47.524;12.404;2023-06-10T05:15:33;11.50;99.90
41882;DHT22;27562;47.524;12.404;2023-06-10T05:17:58;11.50;99.90
41882;DHT22;27562;47.524;12.404;2023-06-10T05:20:24;11.60;99.90
41882;DHT22;27562;47.524;12.404;2023-06-10T05:22:50;11.60;99.90
41882;DHT22;27562;47.524;12.404;2023-06-10T05:25:16;11.70;99.90
41882;DHT22;27562;47.524;12.404;2023-06-10T05:27:42;11.80;99.90
41882;DHT22;27562;47.524;12.404;2023-06-10T05:30:09;11.90;99.90
41882;DHT22;27562;47.524;12.404;2023-06-10T05:32:35;12.00;99.90
41882;DHT22;27562;47.524;12.404;2023-06-10T05:35:01;12.00;99.90
41882;DHT22;27562;47.524;12.404;2023-06-10T05:37:26;12.10;99.90
41882;DHT22;27562;47.524;12.404;2023-06-10T05:39:52;12.20;99.90
41882;DHT22;27562;47.524;12.404;2023-06-10T05:42:17;12.20;99.90
41882;DHT22;27562;47.524;12.404;2023-06-10T05:44:43;12.30;99.90
41882;DHT22;27562;47.524;12.404;2023-06-10T05:47:09;12.40;99.90
41882;DHT22;27562;47.524;12.404;2023-06-10T05:49:34;12.60;99.90
41882;DHT22;27562;47.524;12.404;2023-06-10T05:52:00;12.60;99.90
41882;DHT22;27562;47.524;12.404;2023-06-10T05:54:25;12.70;99.90
41882;DHT22;27562;47.524;12.404;2023-06-10T05:56:51;12.70;99.90
41882;DHT22;27562;47.524;12.404;2023-06-10T05:59:17;12.80;99.90
41882;DHT22;27562;47.524;12.404;2023-06-10T06:01:42;13.00;99.90
41882;DHT22;27562;47.524;12.404;2023-06-10T06:04:08;13.10;99.90
41882;DHT22;27562;47.524;12.404;2023-06-10T06:06:34;13.10;99.90
41882;DHT22;27562;47.524;12.404;2023-06-10T06:09:00;13.20;99.90
41882;DHT22;27562;47.524;12.404;2023-06-10T06:11:26;13.30;99.90
41882;DHT22;27562;47.524;12.404;2023-06-10T06:13:51;13.40;99.90
41882;DHT22;27562;47.524;12.404;2023-06-10T06:16:17;13.50;99.90
41882;DHT22;27562;47.524;12.404;2023-06-10T06:18:43;13.60;99.90
41882;DHT22;27562;47.524;12.404;2023-06-10T06:21:09;13.70;99.90
41882;DHT22;27562;47.524;12.404;2023-06-10T06:23:34;13.80;99.90
41882;DHT22;27562;47.524;12.404;2023-06-10T06:26:00;13.90;99.90
41882;DHT22;27562;47.524;12.404;2023-06-10T06:28:26;13.90;99.90
41882;DHT22;27562;47.524;12.404;2023-06-10T06:30:57;14.00;99.90
41882;DHT22;27562;47.524;12.404;2023-06-10T06:33:22;14.10;99.90
41882;DHT22;27562;47.524;12.404;2023-06-10T06:35:48;14.20;99.90
41882;DHT22;27562;47.524;12.404;2023-06-10T06:38:14;14.20;99.90
41882;DHT22;27562;47.524;12.404;2023-06-10T06:40:39;14.30;99.90
41882;DHT22;27562;47.524;12.404;2023-06-10T06:43:05;14.40;99.90
41882;DHT22;27562;47.524;12.404;2023-06-10T06:45:30;14.50;99.90
41882;DHT22;27562;47.524;12.404;2023-06-10T06:47:56;14.60;99.90
41882;DHT22;27562;47.524;12.404;2023-06-10T06:50:22;14.70;99.90
41882;DHT22;27562;47.524;12.404;2023-06-10T06:52:47;14.80;99.90
41882;DHT22;27562;47.524;12.404;2023-06-10T06:55:13;14.90;99.90
41882;DHT22;27562;47.524;12.404;2023-06-10T06:57:38;15.10;99.90
41882;DHT22;27562;47.524;12.404;2023-06-10T07:00:04;15.20;99.90
41882;DHT22;27562;47.524;12.404;2023-06-10T07:02:30;15.30;99.90
41882;DHT22;27562;47.524;12.404;2023-06-10T07:04:57;15.50;99.90
41882;DHT22;27562;47.524;12.404;2023-06-10T07:07:24;15.70;99.90
41882;DHT22;27562;47.524;12.404;2023-06-10T07:09:49;15.80;99.90
41882;DHT22;27562;47.524;12.404;2023-06-10T07:12:15;16.00;99.90
41882;DHT22;27562;47.524;12.404;2023-06-10T07:14:41;16.10;99.90
41882;DHT22;27562;47.524;12.404;2023-06-10T07:17:06;16.20;99.90
41882;DHT22;27562;47.524;12.404;2023-06-10T07:19:32;16.40;99.90
41882;DHT22;27562;47.524;12.404;2023-06-10T07:21:57;16.50;99.90
41882;DHT22;27562;47.524;12.404;2023-06-10T07:24:23;16.60;99.90
41882;DHT22;27562;47.524;12.404;2023-06-10T07:26:48;16.80;99.90
41882;DHT22;27562;47.524;12.404;2023-06-10T07:29:14;17.00;99.90
41882;DHT22;27562;47.524;12.404;2023-06-10T07:31:40;17.10;99.90
41882;DHT22;27562;47.524;12.404;2023-06-10T07:34:06;17.20;99.90
41882;DHT22;27562;47.524;12.404;2023-06-10T07:36:31;17.30;99.90
41882;DHT22;27562;47.524;12.404;2023-06-10T07:38:57;17.50;99.90
41882;DHT22;27562;47.524;12.404;2023-06-10T07:41:23;17.60;99.90
41882;DHT22;27562;47.524;12.404;2023-06-10T07:43:50;17.80;99.90
41882;DHT22;27562;47.524;12.404;2023-06-10T07:46:20;18.00;99.90
41882;DHT22;27562;47.524;12.404;2023-06-10T07:48:46;18.20;99.90
41882;DHT22;27562;47.524;12.404;2023-06-10T07:51:12;18.40;99.90
41882;DHT22;27562;47.524;12.404;2023-06-10T07:53:37;18.50;99.90
41882;DHT22;27562;47.524;12.404;2023-06-10T07:56:03;18.60;99.90
41882;DHT22;27562;47.524;12.404;2023-06-10T07:58:28;18.80;99.90
41882;DHT22;27562;47.524;12.404;2023-06-10T08:00:54;18.90;99.90
41882;DHT22;27562;47.524;12.404;2023-06-10T08:03:20;19.00;99.90
41882;DHT22;27562;47.524;12.404;2023-06-10T08:05:45;19.20;99.90
41882;DHT22;27562;47.524;12.404;2023-06-10T08:08:11;19.30;99.90
41882;DHT22;27562;47.524;12.404;2023-06-10T08:10:36;19.40;99.90
41882;DHT22;27562;47.524;12.404;2023-06-10T08:13:02;19.60;99.90
41882;DHT22;27562;47.524;12.404;2023-06-10T08:15:27;19.80;99.90
41882;DHT22;27562;47.524;12.404;2023-06-10T08:17:53;19.90;99.90
41882;DHT22;27562;47.524;12.404;2023-06-10T08:20:18;20.00;99.60
41882;DHT22;27562;47.524;12.404;2023-06-10T08:22:44;20.10;98.80
41882;DHT22;27562;47.524;12.404;2023-06-10T08:25:09;20.30;99.20
41882;DHT22;27562;47.524;12.404;2023-06-10T08:27:35;20.50;99.90
41882;DHT22;27562;47.524;12.404;2023-06-10T08:30:00;20.50;99.10
41882;DHT22;27562;47.524;12.404;2023-06-10T08:32:26;20.70;98.30
41882;DHT22;27562;47.524;12.404;2023-06-10T08:34:52;20.80;98.10
41882;DHT22;27562;47.524;12.404;2023-06-10T08:37:17;21.00;97.80
41882;DHT22;27562;47.524;12.404;2023-06-10T08:39:43;21.10;96.80
41882;DHT22;27562;47.524;12.404;2023-06-10T08:45:07;21.40;97.00
41882;DHT22;27562;47.524;12.404;2023-06-10T08:47:33;21.50;96.30
41882;DHT22;27562;47.524;12.404;2023-06-10T08:50:02;21.60;96.20
41882;DHT22;27562;47.524;12.404;2023-06-10T08:52:29;21.70;96.70
41882;DHT22;27562;47.524;12.404;2023-06-10T08:55:00;21.80;95.50
41882;DHT22;27562;47.524;12.404;2023-06-10T08:57:28;21.90;94.70
41882;DHT22;27562;47.524;12.404;2023-06-10T08:59:56;22.10;94.90
41882;DHT22;27562;47.524;12.404;2023-06-10T09:02:21;22.10;93.80
41882;DHT22;27562;47.524;12.404;2023-06-10T09:04:47;22.20;94.50
41882;DHT22;27562;47.524;12.404;2023-06-10T09:07:17;22.30;93.70
41882;DHT22;27562;47.524;12.404;2023-06-10T09:09:43;22.30;93.90
41882;DHT22;27562;47.524;12.404;2023-06-10T09:12:10;22.50;93.10
41882;DHT22;27562;47.524;12.404;2023-06-10T09:14:35;22.60;92.30
41882;DHT22;27562;47.524;12.404;2023-06-10T09:17:01;22.80;91.00
41882;DHT22;27562;47.524;12.404;2023-06-10T09:19:27;22.90;88.90
41882;DHT22;27562;47.524;12.404;2023-06-10T09:21:53;23.00;90.30
41882;DHT22;27562;47.524;12.404;2023-06-10T09:24:20;23.10;84.10
41882;DHT22;27562;47.524;12.404;2023-06-10T09:26:47;23.20;86.70
41882;DHT22;27562;47.524;12.404;2023-06-10T09:29:12;23.30;82.40
41882;DHT22;27562;47.524;12.404;2023-06-10T09:31:39;23.50;80.50
41882;DHT22;27562;47.524;12.404;2023-06-10T09:34:05;23.60;78.20
41882;DHT22;27562;47.524;12.404;2023-06-10T09:36:31;23.80;75.30
41882;DHT22;27562;47.524;12.404;2023-06-10T09:38:57;23.90;79.10
41882;DHT22;27562;47.524;12.404;2023-06-10T09:41:31;24.00;78.20
41882;DHT22;27562;47.524;12.404;2023-06-10T09:43:56;24.20;76.30
41882;DHT22;27562;47.524;12.404;2023-06-10T09:46:22;24.20;79.80
41882;DHT22;27562;47.524;12.404;2023-06-10T09:48:48;24.30;81.20
41882;DHT22;27562;47.524;12.404;2023-06-10T09:51:13;24.40;81.30
41882;DHT22;27562;47.524;12.404;2023-06-10T09:53:39;24.40;77.60
41882;DHT22;27562;47.524;12.404;2023-06-10T09:56:05;24.60;79.80
41882;DHT22;27562;47.524;12.404;2023-06-10T09:58:38;24.70;79.50
41882;DHT22;27562;47.524;12.404;2023-06-10T10:01:08;24.70;78.70
41882;DHT22;27562;47.524;12.404;2023-06-10T10:03:37;24.70;78.10
41882;DHT22;27562;47.524;12.404;2023-06-10T10:06:08;24.80;78.00
41882;DHT22;27562;47.524;12.404;2023-06-10T10:08:34;24.70;75.90
41882;DHT22;27562;47.524;12.404;2023-06-10T10:10:59;24.70;75.90
41882;DHT22;27562;47.524;12.404;2023-06-10T10:13:25;24.50;77.00
41882;DHT22;27562;47.524;12.404;2023-06-10T10:15:52;24.20;77.10
41882;DHT22;27562;47.524;12.404;2023-06-10T10:18:17;24.00;78.90
41882;DHT22;27562;47.524;12.404;2023-06-10T10:20:46;24.00;78.80
41882;DHT22;27562;47.524;12.404;2023-06-10T10:23:12;23.90;79.40
41882;DHT22;27562;47.524;12.404;2023-06-10T10:25:40;24.10;79.10
41882;DHT22;27562;47.524;12.404;2023-06-10T10:30:54;24.40;79.60
41882;DHT22;27562;47.524;12.404;2023-06-10T10:33:31;24.50;77.40
41882;DHT22;27562;47.524;12.404;2023-06-10T10:35:58;24.40;76.60
41882;DHT22;27562;47.524;12.404;2023-06-10T10:38:24;24.40;78.10
41882;DHT22;27562;47.524;12.404;2023-06-10T10:40:50;24.60;76.60
41882;DHT22;27562;47.524;12.404;2023-06-10T10:43:16;25.00;75.70
41882;DHT22;27562;47.524;12.404;2023-06-10T10:45:42;25.30;76.10
41882;DHT22;27562;47.524;12.404;2023-06-10T10:48:08;25.40;74.00
41882;DHT22;27562;47.524;12.404;2023-06-10T10:50:37;25.30;73.50
41882;DHT22;27562;47.524;12.404;2023-06-10T10:53:03;25.00;72.00
41882;DHT22;27562;47.524;12.404;2023-06-10T10:55:29;24.70;74.00
41882;DHT22;27562;47.524;12.404;2023-06-10T10:57:59;24.40;74.80
41882;DHT22;27562;47.524;12.404;2023-06-10T11:02:53;23.80;77.20
41882;DHT22;27562;47.524;12.404;2023-06-10T11:05:30;23.60;77.70
41882;DHT22;27562;47.524;12.404;2023-06-10T11:07:56;23.40;78.60
41882;DHT22;27562;47.524;12.404;2023-06-10T11:10:34;23.30;80.00
41882;DHT22;27562;47.524;12.404;2023-06-10T11:13:01;23.20;79.20
41882;DHT22;27562;47.524;12.404;2023-06-10T11:15:30;23.00;80.70
41882;DHT22;27562;47.524;12.404;2023-06-10T11:18:06;23.00;80.30
41882;DHT22;27562;47.524;12.404;2023-06-10T11:23:09;23.10;80.50
41882;DHT22;27562;47.524;12.404;2023-06-10T11:25:38;23.10;81.90
41882;DHT22;27562;47.524;12.404;2023-06-10T11:28:08;23.10;81.00
41882;DHT22;27562;47.524;12.404;2023-06-10T11:30:42;23.20;82.00
41882;DHT22;27562;47.524;12.404;2023-06-10T11:33:08;23.20;82.40
41882;DHT22;27562;47.524;12.404;2023-06-10T11:35:33;23.20;81.30
41882;DHT22;27562;47.524;12.404;2023-06-10T11:37:59;23.20;81.80
41882;DHT22;27562;47.524;12.404;2023-06-10T11:40:26;23.30;81.70
41882;DHT22;27562;47.524;12.404;2023-06-10T11:42:51;23.30;81.70
41882;DHT22;27562;47.524;12.404;2023-06-10T11:45:17;23.40;80.60
41882;DHT22;27562;47.524;12.404;2023-06-10T11:47:54;23.40;82.20
41882;DHT22;27562;47.524;12.404;2023-06-10T11:50:33;23.30;80.70
41882;DHT22;27562;47.524;12.404;2023-06-10T11:52:58;23.40;81.00
41882;DHT22;27562;47.524;12.404;2023-06-10T11:55:25;23.80;81.80
41882;DHT22;27562;47.524;12.404;2023-06-10T11:57:51;24.00;80.90
41882;DHT22;27562;47.524;12.404;2023-06-10T12:00:23;24.20;79.50
41882;DHT22;27562;47.524;12.404;2023-06-10T12:02:56;24.00;77.90
41882;DHT22;27562;47.524;12.404;2023-06-10T12:05:22;23.90;79.20
41882;DHT22;27562;47.524;12.404;2023-06-10T12:07:48;23.90;77.50
41882;DHT22;27562;47.524;12.404;2023-06-10T12:10:13;23.80;79.20
41882;DHT22;27562;47.524;12.404;2023-06-10T12:12:39;23.80;80.20
41882;DHT22;27562;47.524;12.404;2023-06-10T12:15:06;23.70;77.40
41882;DHT22;27562;47.524;12.404;2023-06-10T12:19:58;23.40;81.10
41882;DHT22;27562;47.524;12.404;2023-06-10T12:22:24;23.30;81.40
41882;DHT22;27562;47.524;12.404;2023-06-10T12:27:24;23.20;80.60
41882;DHT22;27562;47.524;12.404;2023-06-10T12:29:53;23.10;81.90
41882;DHT22;27562;47.524;12.404;2023-06-10T12:32:34;23.10;83.40
41882;DHT22;27562;47.524;12.404;2023-06-10T12:35:03;23.20;82.70
41882;DHT22;27562;47.524;12.404;2023-06-10T12:37:31;23.40;84.10
41882;DHT22;27562;47.524;12.404;2023-06-10T12:40:00;23.40;84.00
41882;DHT22;27562;47.524;12.404;2023-06-10T12:42:26;23.60;85.70
41882;DHT22;27562;47.524;12.404;2023-06-10T12:44:55;23.90;82.40
41882;DHT22;27562;47.524;12.404;2023-06-10T12:47:29;24.30;84.10
41882;DHT22;27562;47.524;12.404;2023-06-10T12:49:54;24.50;80.40
41882;DHT22;27562;47.524;12.404;2023-06-10T12:52:20;24.60;79.60
41882;DHT22;27562;47.524;12.404;2023-06-10T12:54:45;24.70;77.20
41882;DHT22;27562;47.524;12.404;2023-06-10T12:57:11;24.80;78.10
41882;DHT22;27562;47.524;12.404;2023-06-10T12:59:38;24.90;80.70
41882;DHT22;27562;47.524;12.404;2023-06-10T13:02:03;25.10;80.70
41882;DHT22;27562;47.524;12.404;2023-06-10T13:04:29;25.20;78.10
41882;DHT22;27562;47.524;12.404;2023-06-10T13:06:54;25.20;76.90
41882;DHT22;27562;47.524;12.404;2023-06-10T13:09:21;25.30;76.00
41882;DHT22;27562;47.524;12.404;2023-06-10T13:11:47;25.30;77.80
41882;DHT22;27562;47.524;12.404;2023-06-10T13:14:12;25.20;77.00
41882;DHT22;27562;47.524;12.404;2023-06-10T13:16:38;25.20;76.50
41882;DHT22;27562;47.524;12.404;2023-06-10T13:19:04;25.20;75.90
41882;DHT22;27562;47.524;12.404;2023-06-10T13:21:31;25.30;76.30
41882;DHT22;27562;47.524;12.404;2023-06-10T13:24:00;25.20;75.30
41882;DHT22;27562;47.524;12.404;2023-06-10T13:26:26;25.20;76.80
41882;DHT22;27562;47.524;12.404;2023-06-10T13:28:51;25.20;75.90
41882;DHT22;27562;47.524;12.404;2023-06-10T13:31:17;25.20;75.90
41882;DHT22;27562;47.524;12.404;2023-06-10T13:33:43;25.10;74.70
41882;DHT22;27562;47.524;12.404;2023-06-10T13:36:09;25.00;75.00
41882;DHT22;27562;47.524;12.404;2023-06-10T13:38:34;25.20;76.00
41882;DHT22;27562;47.524;12.404;2023-06-10T13:41:00;25.30;76.00
41882;DHT22;27562;47.524;12.404;2023-06-10T13:43:26;25.30;74.70
41882;DHT22;27562;47.524;12.404;2023-06-10T13:45:51;25.20;73.80
41882;DHT22;27562;47.524;12.404;2023-06-10T13:48:17;25.00;74.50
41882;DHT22;27562;47.524;12.404;2023-06-10T13:50:43;24.70;75.80
41882;DHT22;27562;47.524;12.404;2023-06-10T13:53:11;24.60;77.70
41882;DHT22;27562;47.524;12.404;2023-06-10T13:55:37;24.70;77.40
41882;DHT22;27562;47.524;12.404;2023-06-10T13:58:02;24.70;77.00
41882;DHT22;27562;47.524;12.404;2023-06-10T14:00:28;24.70;78.60
41882;DHT22;27562;47.524;12.404;2023-06-10T14:02:53;24.80;78.80
41882;DHT22;27562;47.524;12.404;2023-06-10T14:05:19;24.50;80.30
41882;DHT22;27562;47.524;12.404;2023-06-10T14:07:44;24.20;80.90
41882;DHT22;27562;47.524;12.404;2023-06-10T14:10:10;24.10;82.40
41882;DHT22;27562;47.524;12.404;2023-06-10T14:12:36;24.10;84.30
41882;DHT22;27562;47.524;12.404;2023-06-10T14:15:01;24.00;84.30
41882;DHT22;27562;47.524;12.404;2023-06-10T14:17:28;23.90;84.20
41882;DHT22;27562;47.524;12.404;2023-06-10T14:19:53;23.90;85.90
41882;DHT22;27562;47.524;12.404;2023-06-10T14:22:19;23.80;85.40
41882;DHT22;27562;47.524;12.404;2023-06-10T14:24:44;23.70;86.60
41882;DHT22;27562;47.524;12.404;2023-06-10T14:27:10;23.50;87.10
41882;DHT22;27562;47.524;12.404;2023-06-10T14:29:35;23.50;86.30
41882;DHT22;27562;47.524;12.404;2023-06-10T14:32:01;23.40;85.70
41882;DHT22;27562;47.524;12.404;2023-06-10T14:34:26;23.40;85.90
41882;DHT22;27562;47.524;12.404;2023-06-10T14:36:55;23.30;83.40
41882;DHT22;27562;47.524;12.404;2023-06-10T14:39:20;23.10;84.60
41882;DHT22;27562;47.524;12.404;2023-06-10T14:41:46;23.00;84.40
41882;DHT22;27562;47.524;12.404;2023-06-10T14:44:11;22.90;84.80
41882;DHT22;27562;47.524;12.404;2023-06-10T14:46:37;22.60;83.10
41882;DHT22;27562;47.524;12.404;2023-06-10T14:49:02;22.50;84.50
41882;DHT22;27562;47.524;12.404;2023-06-10T14:51:28;22.40;85.80
41882;DHT22;27562;47.524;12.404;2023-06-10T14:53:53;22.40;85.20
41882;DHT22;27562;47.524;12.404;2023-06-10T14:56:19;22.40;85.40
41882;DHT22;27562;47.524;12.404;2023-06-10T14:58:45;22.40;85.20
41882;DHT22;27562;47.524;12.404;2023-06-10T15:01:10;22.50;86.10
41882;DHT22;27562;47.524;12.404;2023-06-10T15:03:36;22.60;86.50
41882;DHT22;27562;47.524;12.404;2023-06-10T15:06:01;22.60;87.10
41882;DHT22;27562;47.524;12.404;2023-06-10T15:08:27;22.60;86.10
41882;DHT22;27562;47.524;12.404;2023-06-10T15:10:53;22.70;84.50
41882;DHT22;27562;47.524;12.404;2023-06-10T15:13:19;22.80;85.00
41882;DHT22;27562;47.524;12.404;2023-06-10T15:15:45;23.00;83.90
41882;DHT22;27562;47.524;12.404;2023-06-10T15:18:10;23.10;85.00
41882;DHT22;27562;47.524;12.404;2023-06-10T15:20:36;23.10;83.60
41882;DHT22;27562;47.524;12.404;2023-06-10T15:23:01;23.30;84.40
41882;DHT22;27562;47.524;12.404;2023-06-10T15:25:27;23.50;84.70
41882;DHT22;27562;47.524;12.404;2023-06-10T15:27:53;23.80;83.50